sensor_id;sensor_type;location;lat;lon;timestamp;pressure;altitude;pressure_sealevel;temperature;humidity
18275;BME280;19470;49.322;7.218;2023-04-03T00:00:27;99598.84;;;9.61;70.44
18275;BME280;19470;49.322;7.218;2023-04-03T00:02:53;99605.38;;;9.14;70.28
18275;BME280;19470;49.322;7.218;2023-04-03T00:05:20;99592.53;;;9.94;67.73
18275;BME280;19470;49.322;7.218;2023-04-03T00:07:46;99592.00;;;9.40;69.03
18275;BME280;19470;49.322;7.218;2023-04-03T00:10:15;99593.53;;;9.61;68.47
18275;BME280;19470;49.322;7.218;2023-04-03T00:12:41;99596.53;;;9.33;67.47
18275;BME280;19470;49.322;7.218;2023-04-03T00:15:08;99598.38;;;9.64;67.60
18275;BME280;19470;49.322;7.218;2023-04-03T00:17:37;99600.97;;;8.88;70.23
18275;BME280;19470;49.322;7.218;2023-04-03T00:20:05;99602.13;;;10.13;66.47
18275;BME280;19470;49.322;7.218;2023-04-03T00:22:32;99609.53;;;9.73;68.46
18275;BME280;19470;49.322;7.218;2023-04-03T00:24:58;99606.75;;;10.24;66.01
18275;BME280;19470;49.322;7.218;2023-04-03T00:27:25;99615.84;;;10.04;66.87
18275;BME280;19470;49.322;7.218;2023-04-03T00:29:51;99605.69;;;10.32;65.24
18275;BME280;19470;49.322;7.218;2023-04-03T00:32:18;99608.22;;;9.89;67.14
18275;BME280;19470;49.322;7.218;2023-04-03T00:34:46;99611.13;;;10.81;63.92
18275;BME280;19470;49.322;7.218;2023-04-03T00:37:12;99609.66;;;10.41;64.46
18275;BME280;19470;49.322;7.218;2023-04-03T00:39:39;99603.13;;;10.87;63.77
18275;BME280;19470;49.322;7.218;2023-04-03T00:42:06;99603.44;;;9.72;65.84
18275;BME280;19470;49.322;7.218;2023-04-03T00:47:36;99595.19;;;10.62;63.45
18275;BME280;19470;49.322;7.218;2023-04-03T00:50:06;99591.09;;;10.85;62.98
18275;BME280;19470;49.322;7.218;2023-04-03T00:52:33;99587.19;;;10.26;63.49
18275;BME280;19470;49.322;7.218;2023-04-03T00:55:02;99580.03;;;10.01;63.34
18275;BME280;19470;49.322;7.218;2023-04-03T00:57:30;99577.22;;;10.28;62.82
18275;BME280;19470;49.322;7.218;2023-04-03T01:00:01;99582.91;;;10.24;63.48
18275;BME280;19470;49.322;7.218;2023-04-03T01:02:29;99589.78;;;10.75;62.42
18275;BME280;19470;49.322;7.218;2023-04-03T01:04:55;99577.28;;;10.14;64.65
18275;BME280;19470;49.322;7.218;2023-04-03T01:07:26;99585.53;;;9.99;65.53
18275;BME280;19470;49.322;7.218;2023-04-03T01:09:56;99577.41;;;10.51;63.30
18275;BME280;19470;49.322;7.218;2023-04-03T01:12:26;99579.75;;;9.53;68.17
18275;BME280;19470;49.322;7.218;2023-04-03T01:14:54;99574.25;;;9.86;66.05
18275;BME280;19470;49.322;7.218;2023-04-03T01:17:29;99577.69;;;9.55;66.85
18275;BME280;19470;49.322;7.218;2023-04-03T01:20:06;99588.25;;;9.61;67.98
18275;BME280;19470;49.322;7.218;2023-04-03T01:22:42;99582.78;;;9.56;68.85
18275;BME280;19470;49.322;7.218;2023-04-03T01:25:11;99582.06;;;9.36;68.16
18275;BME280;19470;49.322;7.218;2023-04-03T01:27:38;99576.16;;;10.29;64.88
18275;BME280;19470;49.322;7.218;2023-04-03T01:30:06;99577.81;;;10.23;65.61
18275;BME280;19470;49.322;7.218;2023-04-03T01:32:34;99578.25;;;9.32;69.10
18275;BME280;19470;49.322;7.218;2023-04-03T01:35:01;99576.81;;;9.67;67.69
18275;BME280;19470;49.322;7.218;2023-04-03T01:37:27;99575.78;;;9.68;66.54
18275;BME280;19470;49.322;7.218;2023-04-03T01:39:54;99579.28;;;9.94;66.29
18275;BME280;19470;49.322;7.218;2023-04-03T01:42:20;99580.16;;;9.50;69.15
18275;BME280;19470;49.322;7.218;2023-04-03T01:44:47;99578.06;;;9.65;67.76
18275;BME280;19470;49.322;7.218;2023-04-03T01:47:13;99575.28;;;9.53;67.81
18275;BME280;19470;49.322;7.218;2023-04-03T01:49:41;99571.91;;;9.71;67.08
18275;BME280;19470;49.322;7.218;2023-04-03T01:52:08;99578.44;;;9.68;66.48
18275;BME280;19470;49.322;7.218;2023-04-03T01:54:34;99579.28;;;9.62;67.83
18275;BME280;19470;49.322;7.218;2023-04-03T01:57:01;99579.97;;;9.06;68.86
18275;BME280;19470;49.322;7.218;2023-04-03T01:59:27;99569.69;;;9.36;67.71
18275;BME280;19470;49.322;7.218;2023-04-03T02:01:54;99568.50;;;9.26;67.94
18275;BME280;19470;49.322;7.218;2023-04-03T02:04:21;99572.88;;;9.45;67.70
18275;BME280;19470;49.322;7.218;2023-04-03T02:06:49;99569.38;;;9.83;65.57
18275;BME280;19470;49.322;7.218;2023-04-03T02:09:15;99563.44;;;9.24;68.89
18275;BME280;19470;49.322;7.218;2023-04-03T02:11:42;99571.59;;;9.16;68.36
18275;BME280;19470;49.322;7.218;2023-04-03T02:14:08;99563.38;;;9.37;66.84
18275;BME280;19470;49.322;7.218;2023-04-03T02:16:35;99566.47;;;9.28;67.72
18275;BME280;19470;49.322;7.218;2023-04-03T02:19:01;99567.69;;;9.32;67.66
18275;BME280;19470;49.322;7.218;2023-04-03T02:21:28;99561.53;;;9.38;67.85
18275;BME280;19470;49.322;7.218;2023-04-03T02:23:56;99569.91;;;9.66;65.60
18275;BME280;19470;49.322;7.218;2023-04-03T02:26:23;99568.03;;;9.42;67.23
18275;BME280;19470;49.322;7.218;2023-04-03T02:28:50;99572.22;;;9.11;68.29
18275;BME280;19470;49.322;7.218;2023-04-03T02:31:17;99567.00;;;9.43;68.54
18275;BME280;19470;49.322;7.218;2023-04-03T02:33:44;99579.63;;;9.72;67.13
18275;BME280;19470;49.322;7.218;2023-04-03T02:36:10;99574.09;;;9.04;69.03
18275;BME280;19470;49.322;7.218;2023-04-03T02:38:37;99575.06;;;9.16;68.24
18275;BME280;19470;49.322;7.218;2023-04-03T02:41:06;99573.69;;;9.01;69.60
18275;BME280;19470;49.322;7.218;2023-04-03T02:43:33;99573.69;;;9.01;68.43
18275;BME280;19470;49.322;7.218;2023-04-03T02:45:59;99563.84;;;9.28;67.58
18275;BME280;19470;49.322;7.218;2023-04-03T02:48:26;99574.06;;;9.49;66.15
18275;BME280;19470;49.322;7.218;2023-04-03T02:50:53;99566.41;;;9.72;64.90
18275;BME280;19470;49.322;7.218;2023-04-03T02:53:19;99569.66;;;9.75;65.90
18275;BME280;19470;49.322;7.218;2023-04-03T02:55:46;99572.63;;;9.53;65.80
18275;BME280;19470;49.322;7.218;2023-04-03T02:58:14;99567.47;;;9.27;67.21
18275;BME280;19470;49.322;7.218;2023-04-03T03:00:40;99567.91;;;9.24;67.39
18275;BME280;19470;49.322;7.218;2023-04-03T03:03:07;99571.25;;;9.44;65.66
18275;BME280;19470;49.322;7.218;2023-04-03T03:05:34;99566.81;;;9.38;66.81
18275;BME280;19470;49.322;7.218;2023-04-03T03:08:01;99566.38;;;9.03;68.33
18275;BME280;19470;49.322;7.218;2023-04-03T03:10:27;99564.59;;;8.90;68.30
18275;BME280;19470;49.322;7.218;2023-04-03T03:12:54;99567.38;;;9.08;67.23
18275;BME280;19470;49.322;7.218;2023-04-03T03:15:21;99563.78;;;9.34;66.43
18275;BME280;19470;49.322;7.218;2023-04-03T03:17:48;99556.44;;;8.98;68.16
18275;BME280;19470;49.322;7.218;2023-04-03T03:20:15;99560.47;;;9.45;66.57
18275;BME280;19470;49.322;7.218;2023-04-03T03:22:41;99562.34;;;9.00;68.34
18275;BME280;19470;49.322;7.218;2023-04-03T03:25:09;99564.69;;;8.30;69.72
18275;BME280;19470;49.322;7.218;2023-04-03T03:27:35;99564.09;;;8.28;70.55
18275;BME280;19470;49.322;7.218;2023-04-03T03:30:02;99562.22;;;8.68;69.67
18275;BME280;19470;49.322;7.218;2023-04-03T03:32:30;99568.25;;;8.89;69.20
18275;BME280;19470;49.322;7.218;2023-04-03T03:34:57;99563.47;;;8.46;70.61
18275;BME280;19470;49.322;7.218;2023-04-03T03:37:23;99563.50;;;8.33;69.99
18275;BME280;19470;49.322;7.218;2023-04-03T03:39:50;99570.78;;;8.31;71.38
18275;BME280;19470;49.322;7.218;2023-04-03T03:42:23;99567.03;;;8.91;69.21
18275;BME280;19470;49.322;7.218;2023-04-03T03:44:49;99569.94;;;8.70;69.86
18275;BME280;19470;49.322;7.218;2023-04-03T03:47:17;99574.25;;;8.25;71.62
18275;BME280;19470;49.322;7.218;2023-04-03T03:49:44;99570.63;;;8.39;72.97
18275;BME280;19470;49.322;7.218;2023-04-03T03:52:11;99570.81;;;8.11;74.41
18275;BME280;19470;49.322;7.218;2023-04-03T03:54:37;99571.22;;;7.88;75.33
18275;BME280;19470;49.322;7.218;2023-04-03T03:57:04;99570.78;;;8.04;75.14
18275;BME280;19470;49.322;7.218;2023-04-03T03:59:31;99567.94;;;8.26;74.09
18275;BME280;19470;49.322;7.218;2023-04-03T04:01:58;99567.06;;;8.78;71.71
18275;BME280;19470;49.322;7.218;2023-04-03T04:04:24;99576.66;;;7.80;75.71
18275;BME280;19470;49.322;7.218;2023-04-03T04:06:52;99578.84;;;7.56;75.86
18275;BME280;19470;49.322;7.218;2023-04-03T04:09:19;99581.34;;;7.78;75.60
18275;BME280;19470;49.322;7.218;2023-04-03T04:11:45;99578.69;;;7.64;76.29
18275;BME280;19470;49.322;7.218;2023-04-03T04:14:12;99582.34;;;7.63;76.90
18275;BME280;19470;49.322;7.218;2023-04-03T04:16:38;99585.34;;;7.54;77.43
18275;BME280;19470;49.322;7.218;2023-04-03T04:19:05;99581.72;;;7.61;78.09
18275;BME280;19470;49.322;7.218;2023-04-03T04:21:31;99593.44;;;7.52;77.27
18275;BME280;19470;49.322;7.218;2023-04-03T04:23:59;99590.22;;;7.50;76.63
18275;BME280;19470;49.322;7.218;2023-04-03T04:26:26;99593.22;;;7.47;77.12
18275;BME280;19470;49.322;7.218;2023-04-03T04:28:52;99588.16;;;7.39;77.20
18275;BME280;19470;49.322;7.218;2023-04-03T04:34:40;99590.78;;;6.84;81.13
18275;BME280;19470;49.322;7.218;2023-04-03T04:37:07;99591.19;;;6.88;81.71
18275;BME280;19470;49.322;7.218;2023-04-03T04:39:34;99598.97;;;7.09;80.57
18275;BME280;19470;49.322;7.218;2023-04-03T04:42:01;99595.59;;;7.15;79.17
18275;BME280;19470;49.322;7.218;2023-04-03T04:44:28;99585.91;;;7.29;78.76
18275;BME280;19470;49.322;7.218;2023-04-03T04:46:54;99593.25;;;6.93;81.33
18275;BME280;19470;49.322;7.218;2023-04-03T04:49:21;99590.25;;;7.63;77.71
18275;BME280;19470;49.322;7.218;2023-04-03T04:51:47;99586.59;;;7.58;77.98
18275;BME280;19470;49.322;7.218;2023-04-03T04:54:14;99585.53;;;7.52;78.03
18275;BME280;19470;49.322;7.218;2023-04-03T04:56:42;99586.97;;;7.00;80.06
18275;BME280;19470;49.322;7.218;2023-04-03T04:59:08;99584.47;;;7.27;78.35
18275;BME280;19470;49.322;7.218;2023-04-03T05:01:35;99591.66;;;6.98;79.98
18275;BME280;19470;49.322;7.218;2023-04-03T05:04:02;99582.44;;;7.29;79.68
18275;BME280;19470;49.322;7.218;2023-04-03T05:06:28;99592.38;;;6.85;81.13
18275;BME280;19470;49.322;7.218;2023-04-03T05:08:57;99583.13;;;7.57;76.98
18275;BME280;19470;49.322;7.218;2023-04-03T05:11:23;99586.63;;;7.91;74.99
18275;BME280;19470;49.322;7.218;2023-04-03T05:13:52;99599.38;;;7.06;78.53
18275;BME280;19470;49.322;7.218;2023-04-03T05:16:19;99592.16;;;7.28;78.38
18275;BME280;19470;49.322;7.218;2023-04-03T05:18:45;99594.25;;;7.46;78.05
18275;BME280;19470;49.322;7.218;2023-04-03T05:21:11;99590.38;;;7.42;78.54
18275;BME280;19470;49.322;7.218;2023-04-03T05:23:38;99590.59;;;7.47;76.94
18275;BME280;19470;49.322;7.218;2023-04-03T05:26:04;99593.81;;;7.36;76.56
18275;BME280;19470;49.322;7.218;2023-04-03T05:28:31;99589.56;;;7.35;76.78
18275;BME280;19470;49.322;7.218;2023-04-03T05:30:59;99598.78;;;7.72;76.05
18275;BME280;19470;49.322;7.218;2023-04-03T05:33:26;99604.44;;;6.66;79.96
18275;BME280;19470;49.322;7.218;2023-04-03T05:35:53;99602.53;;;7.30;77.95
18275;BME280;19470;49.322;7.218;2023-04-03T05:38:19;99603.59;;;7.49;76.41
18275;BME280;19470;49.322;7.218;2023-04-03T05:40:46;99598.78;;;7.79;74.99
18275;BME280;19470;49.322;7.218;2023-04-03T05:43:13;99606.91;;;7.84;74.48
18275;BME280;19470;49.322;7.218;2023-04-03T05:45:40;99607.53;;;7.92;75.17
18275;BME280;19470;49.322;7.218;2023-04-03T05:48:07;99614.41;;;7.12;78.24
18275;BME280;19470;49.322;7.218;2023-04-03T05:50:34;99615.03;;;7.96;75.19
18275;BME280;19470;49.322;7.218;2023-04-03T05:53:02;99610.13;;;7.79;76.23
18275;BME280;19470;49.322;7.218;2023-04-03T05:55:29;99613.63;;;8.06;74.01
18275;BME280;19470;49.322;7.218;2023-04-03T05:57:55;99615.66;;;8.17;73.48
18275;BME280;19470;49.322;7.218;2023-04-03T06:00:22;99617.25;;;7.99;75.52
18275;BME280;19470;49.322;7.218;2023-04-03T06:02:49;99613.75;;;7.58;76.69
18275;BME280;19470;49.322;7.218;2023-04-03T06:05:17;99619.88;;;7.85;74.49
18275;BME280;19470;49.322;7.218;2023-04-03T06:07:44;99620.72;;;8.12;73.46
18275;BME280;19470;49.322;7.218;2023-04-03T06:10:11;99618.91;;;8.06;72.21
18275;BME280;19470;49.322;7.218;2023-04-03T06:12:38;99622.38;;;8.53;71.03
18275;BME280;19470;49.322;7.218;2023-04-03T06:15:06;99633.47;;;7.82;74.68
18275;BME280;19470;49.322;7.218;2023-04-03T06:17:33;99630.44;;;7.99;72.43
18275;BME280;19470;49.322;7.218;2023-04-03T06:19:59;99629.28;;;8.41;71.68
18275;BME280;19470;49.322;7.218;2023-04-03T06:22:27;99629.63;;;7.98;72.50
18275;BME280;19470;49.322;7.218;2023-04-03T06:24:55;99632.13;;;8.39;72.70
18275;BME280;19470;49.322;7.218;2023-04-03T06:27:21;99632.91;;;8.13;73.55
18275;BME280;19470;49.322;7.218;2023-04-03T06:29:48;99630.66;;;7.90;73.63
18275;BME280;19470;49.322;7.218;2023-04-03T06:32:15;99629.28;;;8.41;72.09
18275;BME280;19470;49.322;7.218;2023-04-03T06:34:42;99633.69;;;8.87;70.54
18275;BME280;19470;49.322;7.218;2023-04-03T06:37:10;99626.72;;;9.06;70.31
18275;BME280;19470;49.322;7.218;2023-04-03T06:39:38;99633.66;;;9.00;68.41
18275;BME280;19470;49.322;7.218;2023-04-03T06:42:05;99641.13;;;9.16;69.13
18275;BME280;19470;49.322;7.218;2023-04-03T06:44:31;99637.34;;;8.86;68.47
18275;BME280;19470;49.322;7.218;2023-04-03T06:46:59;99640.03;;;9.37;67.78
18275;BME280;19470;49.322;7.218;2023-04-03T06:49:25;99653.63;;;9.41;69.47
18275;BME280;19470;49.322;7.218;2023-04-03T06:51:53;99642.00;;;8.84;71.01
18275;BME280;19470;49.322;7.218;2023-04-03T06:54:19;99654.53;;;9.66;69.17
18275;BME280;19470;49.322;7.218;2023-04-03T06:56:50;99656.88;;;9.43;69.51
18275;BME280;19470;49.322;7.218;2023-04-03T06:59:17;99659.22;;;9.19;69.96
18275;BME280;19470;49.322;7.218;2023-04-03T07:01:43;99656.19;;;9.99;67.59
18275;BME280;19470;49.322;7.218;2023-04-03T07:04:09;99650.75;;;9.49;69.36
18275;BME280;19470;49.322;7.218;2023-04-03T07:06:36;99654.84;;;9.83;68.76
18275;BME280;19470;49.322;7.218;2023-04-03T07:09:03;99650.00;;;9.35;69.67
18275;BME280;19470;49.322;7.218;2023-04-03T07:11:29;99656.50;;;9.78;66.79
18275;BME280;19470;49.322;7.218;2023-04-03T07:13:57;99657.63;;;9.95;68.57
18275;BME280;19470;49.322;7.218;2023-04-03T07:16:24;99657.03;;;10.74;65.88
18275;BME280;19470;49.322;7.218;2023-04-03T07:18:51;99656.78;;;10.01;68.77
18275;BME280;19470;49.322;7.218;2023-04-03T07:21:17;99664.72;;;10.83;66.69
18275;BME280;19470;49.322;7.218;2023-04-03T07:23:44;99665.22;;;10.73;67.12
18275;BME280;19470;49.322;7.218;2023-04-03T07:26:10;99663.56;;;11.15;65.60
18275;BME280;19470;49.322;7.218;2023-04-03T07:28:37;99671.75;;;10.70;68.75
18275;BME280;19470;49.322;7.218;2023-04-03T07:31:08;99672.94;;;10.74;68.14
18275;BME280;19470;49.322;7.218;2023-04-03T07:33:37;99677.16;;;11.00;68.67
18275;BME280;19470;49.322;7.218;2023-04-03T07:36:05;99668.53;;;11.60;65.93
18275;BME280;19470;49.322;7.218;2023-04-03T07:38:32;99672.75;;;11.98;64.57
18275;BME280;19470;49.322;7.218;2023-04-03T07:40:58;99671.03;;;12.03;65.44
18275;BME280;19470;49.322;7.218;2023-04-03T07:43:25;99665.88;;;10.87;67.65
18275;BME280;19470;49.322;7.218;2023-04-03T07:45:52;99672.53;;;11.51;66.27
18275;BME280;19470;49.322;7.218;2023-04-03T07:48:22;99675.31;;;10.33;70.08
18275;BME280;19470;49.322;7.218;2023-04-03T07:50:49;99674.09;;;10.60;70.13
18275;BME280;19470;49.322;7.218;2023-04-03T07:53:16;99682.72;;;11.36;67.51
18275;BME280;19470;49.322;7.218;2023-04-03T07:55:45;99678.56;;;11.03;67.25
18275;BME280;19470;49.322;7.218;2023-04-03T07:58:14;99668.50;;;12.09;64.95
18275;BME280;19470;49.322;7.218;2023-04-03T08:00:41;99680.72;;;12.87;62.93
18275;BME280;19470;49.322;7.218;2023-04-03T08:03:10;99671.81;;;12.69;63.87
18275;BME280;19470;49.322;7.218;2023-04-03T08:05:39;99678.31;;;11.78;66.75
18275;BME280;19470;49.322;7.218;2023-04-03T08:08:07;99680.84;;;12.57;64.52
18275;BME280;19470;49.322;7.218;2023-04-03T08:10:34;99680.53;;;13.52;62.23
18275;BME280;19470;49.322;7.218;2023-04-03T08:13:01;99681.72;;;13.44;61.94
18275;BME280;19470;49.322;7.218;2023-04-03T08:15:29;99686.28;;;12.73;62.03
18275;BME280;19470;49.322;7.218;2023-04-03T08:17:56;99679.47;;;12.12;63.67
18275;BME280;19470;49.322;7.218;2023-04-03T08:20:22;99691.63;;;11.90;63.59
18275;BME280;19470;49.322;7.218;2023-04-03T08:22:50;99682.25;;;12.17;62.99
18275;BME280;19470;49.322;7.218;2023-04-03T08:25:17;99682.22;;;10.34;68.22
18275;BME280;19470;49.322;7.218;2023-04-03T08:27:43;99692.69;;;11.70;65.07
18275;BME280;19470;49.322;7.218;2023-04-03T08:30:11;99692.75;;;13.24;58.58
18275;BME280;19470;49.322;7.218;2023-04-03T08:32:37;99691.00;;;12.06;62.39
18275;BME280;19470;49.322;7.218;2023-04-03T08:35:05;99683.59;;;13.20;59.83
18275;BME280;19470;49.322;7.218;2023-04-03T08:37:34;99684.31;;;12.92;60.11
18275;BME280;19470;49.322;7.218;2023-04-03T08:40:03;99685.69;;;13.07;58.56
18275;BME280;19470;49.322;7.218;2023-04-03T08:42:39;99679.09;;;12.97;60.61
18275;BME280;19470;49.322;7.218;2023-04-03T08:45:11;99685.44;;;11.96;62.21
18275;BME280;19470;49.322;7.218;2023-04-03T08:47:42;99676.22;;;12.75;58.59
18275;BME280;19470;49.322;7.218;2023-04-03T08:50:13;99674.81;;;13.20;57.40
18275;BME280;19470;49.322;7.218;2023-04-03T08:52:44;99692.13;;;12.28;59.03
18275;BME280;19470;49.322;7.218;2023-04-03T08:55:20;99685.31;;;12.56;56.96
18275;BME280;19470;49.322;7.218;2023-04-03T08:57:51;99683.50;;;12.68;58.67
18275;BME280;19470;49.322;7.218;2023-04-03T09:00:23;99688.47;;;12.53;59.97
18275;BME280;19470;49.322;7.218;2023-04-03T09:02:53;99682.81;;;12.61;56.82
18275;BME280;19470;49.322;7.218;2023-04-03T09:05:38;99683.94;;;12.65;57.25
18275;BME280;19470;49.322;7.218;2023-04-03T09:08:24;99680.13;;;13.20;54.74
18275;BME280;19470;49.322;7.218;2023-04-03T09:11:13;99682.81;;;12.85;53.78
18275;BME280;19470;49.322;7.218;2023-04-03T09:13:49;99679.28;;;12.25;55.90
18275;BME280;19470;49.322;7.218;2023-04-03T09:16:25;99684.66;;;12.07;53.96
18275;BME280;19470;49.322;7.218;2023-04-03T09:18:59;99692.59;;;11.77;55.91
18275;BME280;19470;49.322;7.218;2023-04-03T09:21:32;99688.00;;;11.17;56.97
18275;BME280;19470;49.322;7.218;2023-04-03T09:24:02;99680.53;;;12.11;54.32
18275;BME280;19470;49.322;7.218;2023-04-03T09:26:35;99684.78;;;11.15;56.78
18275;BME280;19470;49.322;7.218;2023-04-03T09:29:06;99680.22;;;12.19;53.68
18275;BME280;19470;49.322;7.218;2023-04-03T09:31:37;99672.91;;;12.15;52.56
18275;BME280;19470;49.322;7.218;2023-04-03T09:34:10;99689.28;;;12.00;54.28
18275;BME280;19470;49.322;7.218;2023-04-03T09:36:43;99682.69;;;11.54;55.89
18275;BME280;19470;49.322;7.218;2023-04-03T09:39:14;99680.81;;;11.73;54.99
18275;BME280;19470;49.322;7.218;2023-04-03T09:41:55;99677.91;;;12.35;54.45
18275;BME280;19470;49.322;7.218;2023-04-03T09:44:23;99677.25;;;12.74;55.75
18275;BME280;19470;49.322;7.218;2023-04-03T09:46:50;99690.38;;;11.44;56.83
18275;BME280;19470;49.322;7.218;2023-04-03T09:49:17;99695.03;;;11.97;55.91
18275;BME280;19470;49.322;7.218;2023-04-03T09:51:45;99679.03;;;12.15;56.35
18275;BME280;19470;49.322;7.218;2023-04-03T09:54:33;99678.28;;;12.50;53.23
18275;BME280;19470;49.322;7.218;2023-04-03T09:57:07;99677.31;;;14.07;49.78
18275;BME280;19470;49.322;7.218;2023-04-03T09:59:34;99674.47;;;15.58;46.72
18275;BME280;19470;49.322;7.218;2023-04-03T10:02:14;99678.56;;;14.83;47.89
18275;BME280;19470;49.322;7.218;2023-04-03T10:04:47;99685.16;;;13.57;48.26
18275;BME280;19470;49.322;7.218;2023-04-03T10:07:28;99675.22;;;14.43;46.42
18275;BME280;19470;49.322;7.218;2023-04-03T10:09:55;99675.75;;;14.40;47.92
18275;BME280;19470;49.322;7.218;2023-04-03T10:12:23;99671.41;;;15.06;46.58
18275;BME280;19470;49.322;7.218;2023-04-03T10:14:54;99665.66;;;16.39;41.07
18275;BME280;19470;49.322;7.218;2023-04-03T10:17:33;99669.94;;;16.13;44.21
18275;BME280;19470;49.322;7.218;2023-04-03T10:20:09;99658.44;;;16.40;41.91
18275;BME280;19470;49.322;7.218;2023-04-03T10:22:46;99659.94;;;17.00;41.09
18275;BME280;19470;49.322;7.218;2023-04-03T10:25:21;99647.78;;;17.45;39.66
18275;BME280;19470;49.322;7.218;2023-04-03T10:28:00;99647.16;;;20.01;34.64
18275;BME280;19470;49.322;7.218;2023-04-03T10:30:36;99650.22;;;19.84;35.46
18275;BME280;19470;49.322;7.218;2023-04-03T10:33:20;99654.78;;;19.34;35.36
18275;BME280;19470;49.322;7.218;2023-04-03T10:35:57;99637.16;;;20.07;33.42
18275;BME280;19470;49.322;7.218;2023-04-03T10:38:33;99656.25;;;19.61;34.93
18275;BME280;19470;49.322;7.218;2023-04-03T10:41:12;99653.53;;;20.10;32.88
18275;BME280;19470;49.322;7.218;2023-04-03T10:43:50;99647.44;;;18.24;35.69
18275;BME280;19470;49.322;7.218;2023-04-03T10:46:23;99640.94;;;18.86;36.30
18275;BME280;19470;49.322;7.218;2023-04-03T10:49:02;99654.94;;;18.07;35.01
18275;BME280;19470;49.322;7.218;2023-04-03T10:51:39;99661.47;;;16.85;37.08
18275;BME280;19470;49.322;7.218;2023-04-03T10:54:11;99647.31;;;17.68;35.89
18275;BME280;19470;49.322;7.218;2023-04-03T10:56:40;99648.84;;;17.33;35.71
18275;BME280;19470;49.322;7.218;2023-04-03T10:59:16;99640.75;;;18.17;35.54
18275;BME280;19470;49.322;7.218;2023-04-03T11:01:46;99632.72;;;20.84;33.00
18275;BME280;19470;49.322;7.218;2023-04-03T11:04:21;99645.09;;;19.88;32.95
18275;BME280;19470;49.322;7.218;2023-04-03T11:06:53;99628.88;;;21.38;29.69
18275;BME280;19470;49.322;7.218;2023-04-03T11:09:24;99624.78;;;22.77;30.13
18275;BME280;19470;49.322;7.218;2023-04-03T11:11:57;99639.53;;;17.46;34.95
18275;BME280;19470;49.322;7.218;2023-04-03T11:14:30;99649.66;;;16.44;37.76
18275;BME280;19470;49.322;7.218;2023-04-03T11:17:09;99646.84;;;17.03;37.35
18275;BME280;19470;49.322;7.218;2023-04-03T11:19:39;99636.00;;;16.46;36.02
18275;BME280;19470;49.322;7.218;2023-04-03T11:22:13;99642.06;;;18.09;34.41
18275;BME280;19470;49.322;7.218;2023-04-03T11:24:54;99649.53;;;18.94;33.38
18275;BME280;19470;49.322;7.218;2023-04-03T11:27:23;99636.91;;;19.59;31.14
18275;BME280;19470;49.322;7.218;2023-04-03T11:29:53;99638.13;;;20.21;32.02
18275;BME280;19470;49.322;7.218;2023-04-03T11:32:33;99622.19;;;18.76;34.74
18275;BME280;19470;49.322;7.218;2023-04-03T11:35:05;99624.53;;;20.36;32.05
18275;BME280;19470;49.322;7.218;2023-04-03T11:37:34;99641.50;;;19.53;33.91
18275;BME280;19470;49.322;7.218;2023-04-03T11:40:04;99631.13;;;20.54;33.09
18275;BME280;19470;49.322;7.218;2023-04-03T11:42:36;99629.91;;;19.68;34.89
18275;BME280;19470;49.322;7.218;2023-04-03T11:45:24;99621.13;;;18.57;35.93
18275;BME280;19470;49.322;7.218;2023-04-03T11:47:54;99626.44;;;16.97;39.27
18275;BME280;19470;49.322;7.218;2023-04-03T11:50:38;99627.56;;;16.64;39.06
18275;BME280;19470;49.322;7.218;2023-04-03T11:53:28;99621.69;;;14.44;39.64
18275;BME280;19470;49.322;7.218;2023-04-03T11:55:57;99631.13;;;13.56;42.56
18275;BME280;19470;49.322;7.218;2023-04-03T11:58:25;99631.50;;;14.55;42.56
18275;BME280;19470;49.322;7.218;2023-04-03T12:01:13;99614.19;;;16.59;39.04
18275;BME280;19470;49.322;7.218;2023-04-03T12:04:09;99627.38;;;16.71;36.40
18275;BME280;19470;49.322;7.218;2023-04-03T12:06:58;99625.94;;;15.40;40.79
18275;BME280;19470;49.322;7.218;2023-04-03T12:12:24;99621.88;;;18.98;35.65
18275;BME280;19470;49.322;7.218;2023-04-03T12:14:53;99612.56;;;18.34;35.68
18275;BME280;19470;49.322;7.218;2023-04-03T12:17:23;99609.13;;;19.24;32.71
18275;BME280;19470;49.322;7.218;2023-04-03T12:19:53;99610.31;;;18.98;33.25
18275;BME280;19470;49.322;7.218;2023-04-03T12:22:20;99606.94;;;21.45;29.93
18275;BME280;19470;49.322;7.218;2023-04-03T12:24:49;99605.13;;;19.76;31.77
18275;BME280;19470;49.322;7.218;2023-04-03T12:27:28;99605.44;;;19.15;32.49
18275;BME280;19470;49.322;7.218;2023-04-03T12:30:00;99610.22;;;20.41;32.73
18275;BME280;19470;49.322;7.218;2023-04-03T12:32:58;99602.31;;;20.26;31.49
18275;BME280;19470;49.322;7.218;2023-04-03T12:35:31;99606.16;;;18.05;34.61
18275;BME280;19470;49.322;7.218;2023-04-03T12:38:32;99599.91;;;16.85;38.21
18275;BME280;19470;49.322;7.218;2023-04-03T12:41:23;99599.19;;;19.79;33.42
18275;BME280;19470;49.322;7.218;2023-04-03T12:44:04;99597.19;;;17.38;36.15
18275;BME280;19470;49.322;7.218;2023-04-03T12:46:37;99601.06;;;18.19;35.38
18275;BME280;19470;49.322;7.218;2023-04-03T12:49:22;99610.66;;;16.16;38.95
18275;BME280;19470;49.322;7.218;2023-04-03T12:51:53;99603.69;;;14.90;40.59
18275;BME280;19470;49.322;7.218;2023-04-03T12:54:22;99613.44;;;14.79;40.44
18275;BME280;19470;49.322;7.218;2023-04-03T12:56:49;99619.19;;;14.38;42.26
18275;BME280;19470;49.322;7.218;2023-04-03T12:59:19;99615.91;;;15.52;41.44
18275;BME280;19470;49.322;7.218;2023-04-03T13:01:53;99601.25;;;16.46;37.96
18275;BME280;19470;49.322;7.218;2023-04-03T13:04:22;99604.59;;;15.94;37.75
18275;BME280;19470;49.322;7.218;2023-04-03T13:06:50;99605.47;;;17.31;37.03
18275;BME280;19470;49.322;7.218;2023-04-03T13:09:22;99601.38;;;17.14;37.52
18275;BME280;19470;49.322;7.218;2023-04-03T13:11:49;99593.22;;;17.61;35.82
18275;BME280;19470;49.322;7.218;2023-04-03T13:14:18;99589.53;;;17.98;35.76
18275;BME280;19470;49.322;7.218;2023-04-03T13:16:53;99589.41;;;18.95;33.48
18275;BME280;19470;49.322;7.218;2023-04-03T13:19:22;99584.38;;;18.57;33.19
18275;BME280;19470;49.322;7.218;2023-04-03T13:21:51;99588.09;;;18.77;33.25
18275;BME280;19470;49.322;7.218;2023-04-03T13:24:20;99569.06;;;16.30;35.87
18275;BME280;19470;49.322;7.218;2023-04-03T13:26:47;99588.75;;;15.60;40.42